This is the latest recevied weather packets stored in our database for station/object EA2AFZ-W. If no packets are shown the sender has not sent any weather packets the latest 10 day(s).
| Time | Temp. | Humidity | Pressure | Rain* | Wind** | Luminosity | Snow |
|---|---|---|---|---|---|---|---|
| 1777695319 | 18.33° C | 65% | 1017 hPa | 0 mm | - | - | - |
| 1777693518 | 18.33° C | 65% | 1016 hPa | 0 mm | - | - | - |
| 1777691715 | 18.33° C | 65% | 1017 hPa | 0 mm | - | - | - |
| 1777689912 | 17.78° C | 78% | 1016 hPa | 0 mm | - | - | - |
| 1777688109 | 17.78° C | 78% | 1017 hPa | 0 mm | - | - | - |
| 1777686366 | 17.78° C | 78% | 1017 hPa | 0 mm | - | - | - |
| 1777684564 | 17.78° C | 78% | 1017 hPa | 0 mm | - | - | - |
| 1777682761 | 18.33° C | 78% | 1017 hPa | 0 mm | - | - | - |
| 1777680959 | 18.33° C | 82% | 1017 hPa | 0 mm | - | - | - |
| 1777679156 | 17.78° C | 88% | 1017 hPa | 0 mm | - | - | - |
| 1777677353 | 17.78° C | 88% | 1017 hPa | 0 mm | - | - | - |
| 1777675551 | 18.33° C | 84% | 1017 hPa | 0 mm | - | - | - |
| 1777673748 | 18.89° C | 81% | 1017 hPa | 0 mm | - | - | - |
| 1777671946 | 19.44° C | 77% | 1017 hPa | 0 mm | - | - | - |
| 1777670142 | 22.78° C | 60% | 1017 hPa | 0 mm | - | - | - |
| 1777668340 | 22.78° C | 60% | 1017 hPa | 0 mm | - | - | - |
| 1777666538 | 22.78° C | 60% | 1017 hPa | 0 mm | - | - | - |
| 1777664735 | 23.33° C | 57% | 1017 hPa | 0 mm | - | - | - |
| 1777662933 | 24.44° C | 53% | 1016 hPa | 0 mm | - | - | - |
| 1777661130 | 24.44° C | 53% | 1016 hPa | 0 mm | - | - | - |
| 1777659327 | 24.44° C | 61% | 1017 hPa | 0 mm | - | - | - |
| 1777657524 | 24.44° C | 65% | 1017 hPa | 0 mm | - | - | - |
| 1777655722 | 25.56° C | 57% | 1017 hPa | 0 mm | - | - | - |
| 1777653920 | 26.67° C | 54% | 1017 hPa | 0 mm | - | - | - |
| 1777652117 | 26.67° C | 50% | 1016 hPa | 0 mm | - | - | - |
* Rain latest hour (hover to see other rain measurements)
** Current wind speed in m/s (hover to see current wind gust speed)